createdAt,value
2017-03-06T00:00:26.706Z,995.91
2017-03-06T00:01:36.159Z,995.9
2017-03-06T00:02:45.227Z,995.94
2017-03-06T00:03:55.049Z,995.87
2017-03-06T00:05:04.116Z,995.87
2017-03-06T00:06:14.704Z,995.83
2017-03-06T00:07:23.828Z,995.84
2017-03-06T00:08:33.278Z,995.83
2017-03-06T00:09:42.747Z,995.87
2017-03-06T00:10:51.817Z,995.83
2017-03-06T00:12:02.036Z,995.86
2017-03-06T00:13:11.861Z,995.86
2017-03-06T00:14:21.700Z,995.83
2017-03-06T00:15:30.770Z,995.87
2017-03-06T00:16:40.624Z,995.86
2017-03-06T00:17:50.456Z,995.89
2017-03-06T00:18:59.918Z,995.97
2017-03-06T00:20:09.358Z,995.9
2017-03-06T00:21:18.034Z,995.96
2017-03-06T00:22:27.137Z,995.97
2017-03-06T00:23:36.963Z,995.94
2017-03-06T00:24:46.031Z,995.99
2017-03-06T00:25:55.486Z,995.99
2017-03-06T00:27:04.552Z,995.94
2017-03-06T00:28:13.621Z,996
2017-03-06T00:29:23.060Z,996.01
2017-03-06T00:30:33.331Z,995.95
2017-03-06T00:31:43.167Z,995.93
2017-03-06T00:32:52.601Z,996.01
2017-03-06T00:34:01.681Z,995.95
2017-03-06T00:35:11.146Z,996
2017-03-06T00:36:20.987Z,996
2017-03-06T00:37:30.844Z,996
2017-03-06T00:38:39.902Z,996.1
2017-03-06T00:39:49.342Z,996.04
2017-03-06T00:40:58.410Z,996.05
2017-03-06T00:42:07.482Z,996.05
2017-03-06T00:43:16.555Z,996.03
2017-03-06T00:44:26.395Z,996.03
2017-03-06T00:45:35.468Z,996.04
2017-03-06T00:46:44.934Z,995.99
2017-03-06T00:47:53.989Z,996.04
2017-03-06T00:49:03.819Z,996.02
2017-03-06T00:50:13.300Z,996.07
2017-03-06T00:51:22.391Z,996.05
2017-03-06T00:52:31.842Z,996.06
2017-03-06T00:53:41.693Z,996.03
2017-03-06T00:54:51.135Z,996.09
2017-03-06T00:56:00.194Z,996.06
2017-03-06T00:57:09.254Z,996.06
2017-03-06T00:58:18.339Z,996.03
2017-03-06T00:59:28.585Z,996.09
2017-03-06T01:00:37.649Z,996.09
2017-03-06T01:01:46.700Z,996.05
2017-03-06T01:02:56.519Z,996.14
2017-03-06T01:04:05.972Z,996.12
2017-03-06T01:05:15.800Z,996.1
2017-03-06T01:06:26.021Z,996.07
2017-03-06T01:07:34.712Z,996.09
2017-03-06T01:08:44.554Z,996.09
2017-03-06T01:09:53.629Z,996.04
2017-03-06T01:11:03.086Z,996.02
2017-03-06T01:12:12.547Z,996.06
2017-03-06T01:13:21.988Z,995.98
2017-03-06T01:14:31.833Z,996.05
2017-03-06T01:15:41.673Z,996
2017-03-06T01:16:51.113Z,995.95
2017-03-06T01:18:00.939Z,996
2017-03-06T01:19:10.005Z,996.01
2017-03-06T01:20:19.065Z,995.95
2017-03-06T01:21:29.280Z,995.97
2017-03-06T01:22:38.724Z,995.94
2017-03-06T01:23:48.167Z,995.93
2017-03-06T01:24:57.609Z,995.95
2017-03-06T01:26:07.435Z,995.85
2017-03-06T01:27:17.280Z,995.95
2017-03-06T01:28:27.102Z,995.97
2017-03-06T01:29:36.564Z,995.94
2017-03-06T01:30:46.381Z,995.92
2017-03-06T01:31:55.080Z,995.94
2017-03-06T01:33:04.148Z,995.96
2017-03-06T01:34:13.609Z,995.95
2017-03-06T01:35:22.679Z,995.96
2017-03-06T01:36:32.139Z,995.93
2017-03-06T01:37:41.228Z,995.91
2017-03-06T01:38:50.680Z,996
2017-03-06T01:40:00.124Z,995.96
2017-03-06T01:41:09.969Z,995.98
2017-03-06T01:42:19.426Z,995.98
2017-03-06T01:43:28.488Z,995.99
2017-03-06T01:44:37.556Z,995.91
2017-03-06T01:45:46.630Z,995.95
2017-03-06T01:46:55.699Z,995.91
2017-03-06T01:48:04.760Z,995.87
2017-03-06T01:49:14.198Z,995.9
2017-03-06T01:50:24.031Z,995.9
2017-03-06T01:51:33.858Z,995.89
2017-03-06T01:52:43.305Z,995.86
2017-03-06T01:53:52.359Z,995.83
2017-03-06T01:55:01.808Z,995.9
2017-03-06T01:56:11.661Z,995.82
2017-03-06T01:57:21.116Z,995.86
2017-03-06T01:58:30.566Z,995.85
2017-03-06T01:59:40.420Z,995.86
2017-03-06T02:00:50.268Z,995.9
2017-03-06T02:01:59.750Z,995.89
2017-03-06T02:03:09.209Z,995.85
2017-03-06T02:04:18.276Z,995.86
2017-03-06T02:05:27.747Z,995.87
2017-03-06T02:06:37.216Z,995.83
2017-03-06T02:07:46.653Z,995.87
2017-03-06T02:08:56.508Z,995.81
2017-03-06T02:10:06.741Z,995.82
2017-03-06T02:11:16.568Z,995.84
2017-03-06T02:12:25.625Z,995.8
2017-03-06T02:13:35.480Z,995.83
2017-03-06T02:14:44.558Z,995.83
2017-03-06T02:15:54.410Z,995.83
2017-03-06T02:17:04.249Z,995.81
2017-03-06T02:18:13.729Z,995.8
2017-03-06T02:19:22.427Z,995.83
2017-03-06T02:20:31.137Z,995.81
2017-03-06T02:21:40.575Z,995.79
2017-03-06T02:22:49.648Z,995.79
2017-03-06T02:23:59.101Z,995.77
2017-03-06T02:25:08.929Z,995.76
2017-03-06T02:26:17.993Z,995.77
2017-03-06T02:27:27.062Z,995.73
2017-03-06T02:28:36.898Z,995.72
2017-03-06T02:29:46.346Z,995.75
2017-03-06T02:30:55.791Z,995.79
2017-03-06T02:32:05.658Z,995.72
2017-03-06T02:33:14.736Z,995.69
2017-03-06T02:34:24.214Z,995.75
2017-03-06T02:35:34.052Z,995.73
2017-03-06T02:36:43.904Z,995.76
2017-03-06T02:37:53.767Z,995.78
2017-03-06T02:39:02.844Z,995.73
2017-03-06T02:40:12.688Z,995.72
2017-03-06T02:41:22.902Z,995.76
2017-03-06T02:42:32.736Z,995.75
2017-03-06T02:43:42.937Z,995.75
2017-03-06T02:44:52.001Z,995.74
2017-03-06T02:46:01.061Z,995.71
2017-03-06T02:47:10.507Z,995.69
2017-03-06T02:48:20.350Z,995.69
2017-03-06T02:49:29.427Z,995.7
2017-03-06T02:50:38.882Z,995.67
2017-03-06T02:51:48.322Z,995.63
2017-03-06T02:52:58.147Z,995.62
2017-03-06T02:54:08.734Z,995.64
2017-03-06T02:55:18.174Z,995.63
2017-03-06T02:56:27.664Z,995.67
2017-03-06T02:57:37.111Z,995.64
2017-03-06T02:58:46.562Z,995.62
2017-03-06T02:59:56.388Z,995.64
2017-03-06T03:01:05.473Z,995.62
2017-03-06T03:02:15.676Z,995.62
2017-03-06T03:03:25.514Z,995.61
2017-03-06T03:04:34.576Z,995.58
2017-03-06T03:05:43.643Z,995.58
2017-03-06T03:06:53.097Z,995.59
2017-03-06T03:08:02.954Z,995.58
2017-03-06T03:09:12.411Z,995.55
2017-03-06T03:10:21.852Z,995.48
2017-03-06T03:11:31.692Z,995.53
2017-03-06T03:12:41.526Z,995.52
2017-03-06T03:13:51.348Z,995.52
2017-03-06T03:15:01.557Z,995.47
2017-03-06T03:16:11.015Z,995.55
2017-03-06T03:17:20.109Z,995.51
2017-03-06T03:18:29.553Z,995.51
2017-03-06T03:19:39.007Z,995.5
2017-03-06T03:20:47.712Z,995.47
2017-03-06T03:21:58.302Z,995.48
2017-03-06T03:23:08.131Z,995.48
2017-03-06T03:24:17.965Z,995.45
2017-03-06T03:25:27.790Z,995.45
2017-03-06T03:26:37.624Z,995.48
2017-03-06T03:27:47.083Z,995.45
2017-03-06T03:28:55.768Z,995.45
2017-03-06T03:30:05.989Z,995.45
2017-03-06T03:31:15.044Z,995.46
2017-03-06T03:32:25.645Z,995.45
2017-03-06T03:33:35.488Z,995.42
2017-03-06T03:34:44.925Z,995.39
2017-03-06T03:35:54.764Z,995.45
2017-03-06T03:37:04.210Z,995.43
2017-03-06T03:38:13.304Z,995.41
2017-03-06T03:39:22.416Z,995.39
2017-03-06T03:40:31.494Z,995.4
2017-03-06T03:41:42.088Z,995.39
2017-03-06T03:42:51.535Z,995.42
2017-03-06T03:44:00.607Z,995.39
2017-03-06T03:45:10.450Z,995.41
2017-03-06T03:46:19.155Z,995.37
2017-03-06T03:47:28.595Z,995.38
2017-03-06T03:48:38.041Z,995.37
2017-03-06T03:49:47.492Z,995.42
2017-03-06T03:50:57.333Z,995.39
2017-03-06T03:52:06.775Z,995.42
2017-03-06T03:53:16.255Z,995.42
2017-03-06T03:54:25.719Z,995.41
2017-03-06T03:55:35.166Z,995.42
2017-03-06T03:56:44.236Z,995.47
2017-03-06T03:57:53.699Z,995.43
2017-03-06T03:59:03.562Z,995.4
2017-03-06T04:00:13.393Z,995.4
2017-03-06T04:01:22.472Z,995.41
2017-03-06T04:02:31.540Z,995.49
2017-03-06T04:03:41.372Z,995.47
2017-03-06T04:04:50.432Z,995.51
2017-03-06T04:05:59.867Z,995.49
2017-03-06T04:07:09.308Z,995.52
2017-03-06T04:08:18.750Z,995.52
2017-03-06T04:09:28.200Z,995.53
2017-03-06T04:10:37.274Z,995.48
2017-03-06T04:11:46.381Z,995.48
2017-03-06T04:12:56.217Z,995.48
2017-03-06T04:14:06.808Z,995.52
2017-03-06T04:15:16.279Z,995.48
2017-03-06T04:16:25.758Z,995.51
2017-03-06T04:17:34.462Z,995.5
2017-03-06T04:18:43.913Z,995.55
2017-03-06T04:19:52.604Z,995.54
2017-03-06T04:21:01.299Z,995.49
2017-03-06T04:22:11.504Z,995.53
2017-03-06T04:23:21.333Z,995.52
2017-03-06T04:24:30.795Z,995.53
2017-03-06T04:25:39.875Z,995.53
2017-03-06T04:26:49.322Z,995.54
2017-03-06T04:27:58.406Z,995.57
2017-03-06T04:29:07.127Z,995.58
2017-03-06T04:30:16.567Z,995.54
2017-03-06T04:31:25.633Z,995.56
2017-03-06T04:32:35.459Z,995.59
2017-03-06T04:33:44.532Z,995.57
2017-03-06T04:34:54.354Z,995.57
2017-03-06T04:36:03.417Z,995.56
2017-03-06T04:37:13.236Z,995.57
2017-03-06T04:38:23.077Z,995.6
2017-03-06T04:39:32.174Z,995.6
2017-03-06T04:40:42.026Z,995.61
2017-03-06T04:41:51.870Z,995.58
2017-03-06T04:43:01.715Z,995.55
2017-03-06T04:44:10.781Z,995.54
2017-03-06T04:45:20.239Z,995.54
2017-03-06T04:46:29.700Z,995.54
2017-03-06T04:47:38.751Z,995.52
2017-03-06T04:48:47.867Z,995.55
2017-03-06T04:49:57.317Z,995.54
2017-03-06T04:51:06.760Z,995.56
2017-03-06T04:52:16.218Z,995.49
2017-03-06T04:53:25.275Z,995.5
2017-03-06T04:54:34.726Z,995.51
2017-03-06T04:55:44.186Z,995.47
2017-03-06T04:56:52.874Z,995.49
2017-03-06T04:58:03.100Z,995.53
2017-03-06T04:59:11.786Z,995.49
2017-03-06T05:00:21.638Z,995.51
2017-03-06T05:01:30.732Z,995.56
2017-03-06T05:02:40.940Z,995.52
2017-03-06T05:03:50.780Z,995.47
2017-03-06T05:04:59.851Z,995.49
2017-03-06T05:06:09.287Z,995.49
2017-03-06T05:07:19.112Z,995.51
2017-03-06T05:08:28.170Z,995.47
2017-03-06T05:09:37.241Z,995.49
2017-03-06T05:10:47.074Z,995.46
2017-03-06T05:11:56.149Z,995.51
2017-03-06T05:13:06.401Z,995.5
2017-03-06T05:14:15.460Z,995.49
2017-03-06T05:15:24.166Z,995.54
2017-03-06T05:16:32.880Z,995.51
2017-03-06T05:17:42.345Z,995.47
2017-03-06T05:18:52.179Z,995.45
2017-03-06T05:20:01.267Z,995.47
2017-03-06T05:21:10.342Z,995.42
2017-03-06T05:22:19.040Z,995.49
2017-03-06T05:23:28.491Z,995.44
2017-03-06T05:24:37.592Z,995.53
2017-03-06T05:25:47.451Z,995.51
2017-03-06T05:26:57.286Z,995.52
2017-03-06T05:28:06.369Z,995.53
2017-03-06T05:29:15.835Z,995.58
2017-03-06T05:30:25.310Z,995.57
2017-03-06T05:31:34.756Z,995.54
2017-03-06T05:32:43.454Z,995.59
2017-03-06T05:33:52.889Z,995.57
2017-03-06T05:35:01.977Z,995.55
2017-03-06T05:36:12.186Z,995.59
2017-03-06T05:37:21.259Z,995.59
2017-03-06T05:38:30.703Z,995.61
2017-03-06T05:39:40.559Z,995.6
2017-03-06T05:40:49.616Z,995.62
2017-03-06T05:41:59.062Z,995.63
2017-03-06T05:43:09.294Z,995.58
2017-03-06T05:44:18.757Z,995.62
2017-03-06T05:45:28.581Z,995.67
2017-03-06T05:46:38.023Z,995.69
2017-03-06T05:47:46.705Z,995.67
2017-03-06T05:48:56.141Z,995.68
2017-03-06T05:50:05.968Z,995.7
2017-03-06T05:51:15.024Z,995.71
2017-03-06T05:52:24.853Z,995.7
2017-03-06T05:53:34.705Z,995.71
2017-03-06T05:54:44.156Z,995.74
2017-03-06T05:55:53.233Z,995.72
2017-03-06T05:57:03.088Z,995.7
2017-03-06T05:58:12.553Z,995.71
2017-03-06T05:59:21.241Z,995.73
2017-03-06T06:00:31.486Z,995.73
2017-03-06T06:01:40.191Z,995.76
2017-03-06T06:02:50.042Z,995.76
2017-03-06T06:03:59.547Z,995.71
2017-03-06T06:05:08.614Z,995.7
2017-03-06T06:06:17.677Z,995.78
2017-03-06T06:07:27.148Z,995.74
2017-03-06T06:08:36.617Z,995.72
2017-03-06T06:09:45.716Z,995.72
2017-03-06T06:10:55.183Z,995.69
2017-03-06T06:12:04.659Z,995.76
2017-03-06T06:13:13.728Z,995.72
2017-03-06T06:14:23.561Z,995.7
2017-03-06T06:15:32.626Z,995.75
2017-03-06T06:16:42.093Z,995.74
2017-03-06T06:17:51.540Z,995.72
2017-03-06T06:19:01.014Z,995.75
2017-03-06T06:20:10.849Z,995.67
2017-03-06T06:21:20.321Z,995.73
2017-03-06T06:22:29.765Z,995.7
2017-03-06T06:23:39.222Z,995.68
2017-03-06T06:24:47.898Z,995.7
2017-03-06T06:25:56.982Z,995.72
2017-03-06T06:27:06.058Z,995.69
2017-03-06T06:28:16.273Z,995.69
2017-03-06T06:29:26.117Z,995.73
2017-03-06T06:30:35.171Z,995.74
2017-03-06T06:31:45.010Z,995.74
2017-03-06T06:32:54.090Z,995.72
2017-03-06T06:34:02.785Z,995.75
2017-03-06T06:35:11.852Z,995.71
2017-03-06T06:36:21.705Z,995.74
2017-03-06T06:37:31.550Z,995.77
2017-03-06T06:38:40.602Z,995.74
2017-03-06T06:39:50.427Z,995.75
2017-03-06T06:40:59.890Z,995.73
2017-03-06T06:42:08.966Z,995.77
2017-03-06T06:43:18.023Z,995.73
2017-03-06T06:44:27.486Z,995.79
2017-03-06T06:45:36.593Z,995.72
2017-03-06T06:46:45.658Z,995.79
2017-03-06T06:47:55.498Z,995.81
2017-03-06T06:49:04.582Z,995.77
2017-03-06T06:50:14.427Z,995.79
2017-03-06T06:51:23.126Z,995.81
2017-03-06T06:52:32.949Z,995.8
2017-03-06T06:53:42.427Z,995.77
2017-03-06T06:54:51.901Z,995.81
2017-03-06T06:56:01.354Z,995.76
2017-03-06T06:57:10.807Z,995.8
2017-03-06T06:58:21.027Z,995.83
2017-03-06T06:59:30.119Z,995.79
2017-03-06T07:00:39.582Z,995.77
2017-03-06T07:01:48.647Z,995.8
2017-03-06T07:02:58.483Z,995.77
2017-03-06T07:04:07.940Z,995.8
2017-03-06T07:05:17.391Z,995.8
2017-03-06T07:06:26.470Z,995.81
2017-03-06T07:07:36.309Z,995.82
2017-03-06T07:08:45.752Z,995.84
2017-03-06T07:09:55.212Z,995.83
2017-03-06T07:11:05.050Z,995.86
2017-03-06T07:12:14.875Z,995.81
2017-03-06T07:13:24.351Z,995.84
2017-03-06T07:14:33.411Z,995.85
2017-03-06T07:15:42.857Z,995.81
2017-03-06T07:16:51.555Z,995.86
2017-03-06T07:18:01.391Z,995.85
2017-03-06T07:19:11.634Z,995.83
2017-03-06T07:20:20.321Z,995.85
2017-03-06T07:21:29.780Z,995.82
2017-03-06T07:22:39.238Z,995.82
2017-03-06T07:23:48.699Z,995.81
2017-03-06T07:24:58.553Z,995.85
2017-03-06T07:26:08.005Z,995.86
2017-03-06T07:27:17.085Z,995.88
2017-03-06T07:28:26.937Z,995.84
2017-03-06T07:29:36.436Z,995.87
2017-03-06T07:30:45.124Z,995.88
2017-03-06T07:31:54.200Z,995.86
2017-03-06T07:33:03.662Z,995.89
2017-03-06T07:34:12.368Z,995.88
2017-03-06T07:35:21.824Z,995.92
2017-03-06T07:36:31.280Z,995.92
2017-03-06T07:37:40.730Z,995.93
2017-03-06T07:38:49.817Z,995.93
2017-03-06T07:39:59.279Z,995.94
2017-03-06T07:41:08.749Z,995.92
2017-03-06T07:42:18.210Z,995.88
2017-03-06T07:43:27.282Z,995.92
2017-03-06T07:44:36.368Z,995.94
2017-03-06T07:45:46.189Z,995.94
2017-03-06T07:46:56.397Z,995.91
2017-03-06T07:48:06.239Z,995.97
2017-03-06T07:49:15.702Z,996
2017-03-06T07:50:25.552Z,995.94
2017-03-06T07:51:34.616Z,995.91
2017-03-06T07:52:44.832Z,995.87
2017-03-06T07:53:54.655Z,995.9
2017-03-06T07:55:03.338Z,995.89
2017-03-06T07:56:13.182Z,995.9
2017-03-06T07:57:22.626Z,995.92
2017-03-06T07:58:31.311Z,995.97
2017-03-06T07:59:40.804Z,995.98
2017-03-06T08:00:50.267Z,995.93
2017-03-06T08:01:59.746Z,995.94
2017-03-06T08:03:09.218Z,995.94
2017-03-06T08:04:19.045Z,995.93
2017-03-06T08:05:28.893Z,995.97
2017-03-06T08:06:37.975Z,995.99
2017-03-06T08:07:47.420Z,996
2017-03-06T08:08:56.483Z,996
2017-03-06T08:10:05.951Z,996
2017-03-06T08:11:14.649Z,995.96
2017-03-06T08:12:23.324Z,995.97
2017-03-06T08:13:32.775Z,995.98
2017-03-06T08:14:41.858Z,995.99
2017-03-06T08:15:50.550Z,995.94
2017-03-06T08:17:00.384Z,995.96
2017-03-06T08:18:09.837Z,995.9
2017-03-06T08:19:18.926Z,995.91
2017-03-06T08:20:28.770Z,995.89
2017-03-06T08:21:37.880Z,995.94
2017-03-06T08:22:48.103Z,995.94
2017-03-06T08:23:57.546Z,995.93
2017-03-06T08:25:07.790Z,995.93
2017-03-06T08:26:17.612Z,995.96
2017-03-06T08:27:26.676Z,996.01
2017-03-06T08:28:35.753Z,996
2017-03-06T08:29:44.819Z,995.98
2017-03-06T08:30:54.658Z,995.99
2017-03-06T08:32:04.117Z,996
2017-03-06T08:33:13.588Z,995.99
2017-03-06T08:34:23.060Z,995.99
2017-03-06T08:35:32.498Z,995.93
2017-03-06T08:36:41.950Z,995.92
2017-03-06T08:37:51.412Z,995.91
2017-03-06T08:39:01.264Z,995.95
2017-03-06T08:40:10.347Z,995.97
2017-03-06T08:41:19.417Z,995.97
2017-03-06T08:42:28.494Z,996
2017-03-06T08:43:37.172Z,996.09
2017-03-06T08:44:46.629Z,996.12
2017-03-06T08:45:55.701Z,996.03
2017-03-06T08:47:05.198Z,996.06
2017-03-06T08:48:15.029Z,996.07
2017-03-06T08:49:24.875Z,996.08
2017-03-06T08:50:34.310Z,995.99
2017-03-06T08:51:44.144Z,996.02
2017-03-06T08:52:53.248Z,995.99
2017-03-06T08:54:02.309Z,996.07
2017-03-06T08:55:11.378Z,995.99
2017-03-06T08:56:21.209Z,996.05
2017-03-06T08:57:31.060Z,996.11
2017-03-06T08:58:40.523Z,996.04
2017-03-06T08:59:49.990Z,996.11
2017-03-06T09:00:59.448Z,996.25
2017-03-06T09:02:09.288Z,996.29
2017-03-06T09:03:18.794Z,996.15
2017-03-06T09:04:27.868Z,995.96
2017-03-06T09:05:37.689Z,995.97
2017-03-06T09:06:46.378Z,995.99
2017-03-06T09:07:56.217Z,995.99
2017-03-06T09:09:06.425Z,995.96
2017-03-06T09:10:15.506Z,995.91
2017-03-06T09:11:25.348Z,995.91
2017-03-06T09:12:34.828Z,996
2017-03-06T09:13:44.275Z,996
2017-03-06T09:14:53.728Z,996.01
2017-03-06T09:16:02.802Z,995.99
2017-03-06T09:17:12.630Z,995.99
2017-03-06T09:18:22.094Z,996.03
2017-03-06T09:19:31.956Z,996.06
2017-03-06T09:20:42.213Z,996.03
2017-03-06T09:21:52.058Z,996.06
2017-03-06T09:23:00.737Z,996.04
2017-03-06T09:24:09.418Z,996.09
2017-03-06T09:25:19.278Z,996.09
2017-03-06T09:26:28.751Z,996.04
2017-03-06T09:27:38.212Z,996.13
2017-03-06T09:28:47.277Z,996.11
2017-03-06T09:29:57.107Z,996.07
2017-03-06T09:31:07.335Z,996.08
2017-03-06T09:32:16.782Z,996.06
2017-03-06T09:33:25.520Z,996.06
2017-03-06T09:34:34.982Z,996.09
2017-03-06T09:35:44.432Z,996.02
2017-03-06T09:36:53.503Z,995.98
2017-03-06T09:38:02.973Z,995.98
2017-03-06T09:39:12.804Z,996.02
2017-03-06T09:40:22.246Z,996.04
2017-03-06T09:41:31.697Z,996.05
2017-03-06T09:42:41.153Z,996.05
2017-03-06T09:43:50.977Z,996.15
2017-03-06T09:45:00.434Z,996.11
2017-03-06T09:46:09.882Z,996.1
2017-03-06T09:47:18.943Z,996.14
2017-03-06T09:48:27.625Z,996.07
2017-03-06T09:49:37.065Z,996.05
2017-03-06T09:50:46.529Z,996.07
2017-03-06T09:51:55.997Z,996.1
2017-03-06T09:53:05.482Z,996.08
2017-03-06T09:54:15.304Z,996.07
2017-03-06T09:55:24.821Z,996.1
2017-03-06T09:56:34.281Z,996.08
2017-03-06T09:57:43.371Z,996.13
2017-03-06T09:58:52.822Z,996.17
2017-03-06T10:00:01.879Z,996.21
2017-03-06T10:01:11.717Z,996.23
2017-03-06T10:02:20.422Z,996.28
2017-03-06T10:03:29.500Z,996.26
2017-03-06T10:04:39.729Z,996.19
2017-03-06T10:05:48.802Z,996.18
2017-03-06T10:06:58.647Z,996.24
2017-03-06T10:08:08.511Z,996.23
2017-03-06T10:09:18.341Z,996.27
2017-03-06T10:10:28.550Z,996.31
2017-03-06T10:11:38.401Z,996.3
2017-03-06T10:12:47.866Z,996.24
2017-03-06T10:13:56.928Z,996.24
2017-03-06T10:15:05.978Z,996.21
2017-03-06T10:16:15.444Z,996.18
2017-03-06T10:17:24.911Z,996.19
2017-03-06T10:18:34.737Z,996.26
2017-03-06T10:19:44.583Z,996.26
2017-03-06T10:20:53.658Z,996.35
2017-03-06T10:22:02.345Z,996.39
2017-03-06T10:23:12.569Z,996.48
2017-03-06T10:24:21.650Z,996.45
2017-03-06T10:25:31.903Z,996.64
2017-03-06T10:26:41.800Z,996.32
2017-03-06T10:27:50.879Z,996.28
2017-03-06T10:29:00.718Z,996.34
2017-03-06T10:30:10.550Z,996.26
2017-03-06T10:31:19.618Z,996.19
2017-03-06T10:32:29.110Z,996.17
2017-03-06T10:33:38.562Z,996.11
2017-03-06T10:34:47.656Z,996.1
2017-03-06T10:35:57.108Z,996.08
2017-03-06T10:37:06.187Z,996.02
2017-03-06T10:38:15.281Z,996.04
2017-03-06T10:39:24.746Z,996.04
2017-03-06T10:40:34.589Z,996.06
2017-03-06T10:41:43.670Z,996.06
2017-03-06T10:42:53.528Z,996.09
2017-03-06T10:44:02.968Z,996.07
2017-03-06T10:45:12.815Z,996.01
2017-03-06T10:46:22.299Z,996.03
2017-03-06T10:47:31.395Z,996.06
2017-03-06T10:48:41.233Z,996.01
2017-03-06T10:49:49.952Z,996.01
2017-03-06T10:50:58.678Z,996.01
2017-03-06T10:52:08.524Z,995.97
2017-03-06T10:53:17.612Z,996
2017-03-06T10:54:27.062Z,996.04
2017-03-06T10:55:36.890Z,996.09
2017-03-06T10:56:46.728Z,996.1
2017-03-06T10:57:56.186Z,996.07
2017-03-06T10:59:05.653Z,996.07
2017-03-06T11:00:15.484Z,996.08
2017-03-06T11:01:26.082Z,996.07
2017-03-06T11:02:35.545Z,996.09
2017-03-06T11:03:45.385Z,996.13
2017-03-06T11:04:54.461Z,996.13
2017-03-06T11:06:03.549Z,996.18
2017-03-06T11:07:13.400Z,996.21
2017-03-06T11:08:22.853Z,996.22
2017-03-06T11:09:31.939Z,996.29
2017-03-06T11:10:41.016Z,996.33
2017-03-06T11:11:50.457Z,996.33
2017-03-06T11:13:00.313Z,996.33
2017-03-06T11:14:09.779Z,996.42
2017-03-06T11:15:19.256Z,996.41
2017-03-06T11:16:29.086Z,996.32
2017-03-06T11:17:38.530Z,996.36
2017-03-06T11:18:47.984Z,996.3
2017-03-06T11:19:57.050Z,996.29
2017-03-06T11:21:06.151Z,996.35
2017-03-06T11:22:16.005Z,996.24
2017-03-06T11:23:25.096Z,996.26
2017-03-06T11:24:35.300Z,996.27
2017-03-06T11:25:45.923Z,996.22
2017-03-06T11:26:55.384Z,996.12
2017-03-06T11:28:05.231Z,996.21
2017-03-06T11:29:14.705Z,996.21
2017-03-06T11:30:24.158Z,996.25
2017-03-06T11:31:33.243Z,996.28
2017-03-06T11:32:41.931Z,996.22
2017-03-06T11:33:51.373Z,996.27
2017-03-06T11:35:00.473Z,996.3
2017-03-06T11:36:09.928Z,996.28
2017-03-06T11:37:18.986Z,996.28
2017-03-06T11:38:27.690Z,996.36
2017-03-06T11:39:36.759Z,996.4
2017-03-06T11:40:46.598Z,996.36
2017-03-06T11:41:56.043Z,996.4
2017-03-06T11:43:05.507Z,996.4
2017-03-06T11:44:14.971Z,996.39
2017-03-06T11:45:23.654Z,996.39
2017-03-06T11:46:33.118Z,996.42
2017-03-06T11:47:42.582Z,996.4
2017-03-06T11:48:52.433Z,996.4
2017-03-06T11:50:02.265Z,996.4
2017-03-06T11:51:12.127Z,996.46
2017-03-06T11:52:21.956Z,996.47
2017-03-06T11:53:31.027Z,996.42
2017-03-06T11:54:40.881Z,996.43
2017-03-06T11:55:50.338Z,996.45
2017-03-06T11:57:00.168Z,996.42
2017-03-06T11:58:08.880Z,996.46
2017-03-06T11:59:18.718Z,996.47
2017-03-06T12:00:27.776Z,996.48
2017-03-06T12:01:36.839Z,996.45
2017-03-06T12:02:45.926Z,996.43
2017-03-06T12:03:55.389Z,996.47
2017-03-06T12:05:04.488Z,996.45
2017-03-06T12:06:13.934Z,996.4
2017-03-06T12:07:23.395Z,996.4
2017-03-06T12:08:33.227Z,996.39
2017-03-06T12:09:41.923Z,996.38
2017-03-06T12:10:51.371Z,996.41
2017-03-06T12:12:00.840Z,996.41
2017-03-06T12:13:10.294Z,996.39
2017-03-06T12:14:20.533Z,996.41
2017-03-06T12:15:29.277Z,996.36
2017-03-06T12:16:39.143Z,996.36
2017-03-06T12:17:48.598Z,996.39
2017-03-06T12:18:57.678Z,996.39
2017-03-06T12:20:07.128Z,996.44
2017-03-06T12:21:16.598Z,996.45
2017-03-06T12:22:26.040Z,996.43
2017-03-06T12:23:35.487Z,996.47
2017-03-06T12:24:45.312Z,996.43
2017-03-06T12:25:55.147Z,996.53
2017-03-06T12:27:04.610Z,996.52
2017-03-06T12:28:14.837Z,996.51
2017-03-06T12:29:24.685Z,996.53
2017-03-06T12:30:33.383Z,996.53
2017-03-06T12:31:43.222Z,996.59
2017-03-06T12:32:52.668Z,996.55
2017-03-06T12:34:01.346Z,996.55
2017-03-06T12:35:10.792Z,996.58
2017-03-06T12:36:20.244Z,996.54
2017-03-06T12:37:29.320Z,996.55
2017-03-06T12:38:38.779Z,996.56
2017-03-06T12:39:48.241Z,996.58
2017-03-06T12:40:57.322Z,996.55
2017-03-06T12:42:06.770Z,996.6
2017-03-06T12:43:16.596Z,996.61
2017-03-06T12:44:26.812Z,996.63
2017-03-06T12:45:36.664Z,996.64
2017-03-06T12:46:46.120Z,996.62
2017-03-06T12:47:55.195Z,996.74
2017-03-06T12:49:04.281Z,996.7
2017-03-06T12:50:13.379Z,996.73
2017-03-06T12:51:23.218Z,996.68
2017-03-06T12:52:33.057Z,996.68
2017-03-06T12:53:42.908Z,996.69
2017-03-06T12:54:52.345Z,996.7
2017-03-06T12:56:01.806Z,996.69
2017-03-06T12:57:10.874Z,996.79
2017-03-06T12:58:20.711Z,996.76
2017-03-06T12:59:30.157Z,996.79
2017-03-06T13:00:39.999Z,996.75
2017-03-06T13:01:49.074Z,996.81
2017-03-06T13:02:58.540Z,996.79
2017-03-06T13:04:07.624Z,996.82
2017-03-06T13:05:17.833Z,996.86
2017-03-06T13:06:27.710Z,996.85
2017-03-06T13:07:36.809Z,996.82
2017-03-06T13:08:45.908Z,996.79
2017-03-06T13:09:55.356Z,996.84
2017-03-06T13:11:04.822Z,996.8
2017-03-06T13:12:14.277Z,996.85
2017-03-06T13:13:23.733Z,996.87
2017-03-06T13:14:32.820Z,996.85
2017-03-06T13:15:41.518Z,996.84
2017-03-06T13:16:50.611Z,996.87
2017-03-06T13:18:00.057Z,996.9
2017-03-06T13:19:09.132Z,996.92
2017-03-06T13:20:18.586Z,996.94
2017-03-06T13:21:28.430Z,996.91
2017-03-06T13:22:38.257Z,996.92
2017-03-06T13:23:47.725Z,996.92
2017-03-06T13:24:57.173Z,996.95
2017-03-06T13:26:05.882Z,996.93
2017-03-06T13:27:15.739Z,996.96
2017-03-06T13:28:25.564Z,996.94
2017-03-06T13:29:35.796Z,996.94
2017-03-06T13:30:45.645Z,996.96
2017-03-06T13:31:55.091Z,996.96
2017-03-06T13:33:04.198Z,997.02
2017-03-06T13:34:13.279Z,997.02
2017-03-06T13:35:23.105Z,996.95
2017-03-06T13:36:32.172Z,996.99
2017-03-06T13:37:41.640Z,996.96
2017-03-06T13:38:51.095Z,996.97
2017-03-06T13:40:00.935Z,996.99
2017-03-06T13:41:10.778Z,997.01
2017-03-06T13:42:19.845Z,996.98
2017-03-06T13:43:30.445Z,996.96
2017-03-06T13:44:40.320Z,996.97
2017-03-06T13:45:49.762Z,996.97
2017-03-06T13:46:59.614Z,996.98
2017-03-06T13:48:09.059Z,997.02
2017-03-06T13:49:18.519Z,997.01
2017-03-06T13:50:27.593Z,997.1
2017-03-06T13:51:36.688Z,997.09
2017-03-06T13:52:46.530Z,997.12
2017-03-06T13:53:56.781Z,997.1
2017-03-06T13:55:06.621Z,997.11
2017-03-06T13:56:16.072Z,997.11
2017-03-06T13:57:25.535Z,997.13
2017-03-06T13:58:36.145Z,997.12
2017-03-06T13:59:45.202Z,997.14
2017-03-06T14:00:53.897Z,997.15
2017-03-06T14:02:03.370Z,997.2
2017-03-06T14:03:12.438Z,997.2
2017-03-06T14:04:22.650Z,997.22
2017-03-06T14:05:32.886Z,997.28
2017-03-06T14:06:42.730Z,997.29
2017-03-06T14:07:52.552Z,997.28
2017-03-06T14:09:01.634Z,997.3
2017-03-06T14:10:11.110Z,997.27
2017-03-06T14:11:20.570Z,997.28
2017-03-06T14:12:30.419Z,997.32
2017-03-06T14:13:39.102Z,997.35
2017-03-06T14:14:48.929Z,997.33
2017-03-06T14:15:59.146Z,997.34
2017-03-06T14:17:08.616Z,997.38
2017-03-06T14:18:18.083Z,997.41
2017-03-06T14:19:26.770Z,997.45
2017-03-06T14:20:37.024Z,997.46
2017-03-06T14:21:46.483Z,997.48
2017-03-06T14:22:55.562Z,997.48
2017-03-06T14:24:05.055Z,997.55
2017-03-06T14:25:14.890Z,997.55
2017-03-06T14:26:24.337Z,997.5
2017-03-06T14:27:33.796Z,997.55
2017-03-06T14:28:43.636Z,997.57
2017-03-06T14:29:52.707Z,997.48
2017-03-06T14:31:02.552Z,997.55